sensor_id;sensor_type;location;lat;lon;timestamp;pressure;altitude;pressure_sealevel;temperature;humidity
76285;BME280;71676;50.998;7.098;2023-10-19T00:00:52;98924.09;;;9.73;75.21
76285;BME280;71676;50.998;7.098;2023-10-19T00:03:21;98922.56;;;9.63;75.56
76285;BME280;71676;50.998;7.098;2023-10-19T00:05:49;98915.44;;;9.77;74.93
76285;BME280;71676;50.998;7.098;2023-10-19T00:08:15;98923.88;;;9.84;75.04
76285;BME280;71676;50.998;7.098;2023-10-19T00:10:45;98920.63;;;9.74;75.53
76285;BME280;71676;50.998;7.098;2023-10-19T00:13:14;98921.66;;;9.67;75.48
76285;BME280;71676;50.998;7.098;2023-10-19T00:15:42;98922.53;;;9.65;75.95
76285;BME280;71676;50.998;7.098;2023-10-19T00:18:13;98887.09;;;9.33;76.92
76285;BME280;71676;50.998;7.098;2023-10-19T00:20:47;98919.44;;;9.46;76.86
76285;BME280;71676;50.998;7.098;2023-10-19T00:23:25;98924.75;;;9.84;74.93
76285;BME280;71676;50.998;7.098;2023-10-19T00:25:55;98924.22;;;9.66;76.71
76285;BME280;71676;50.998;7.098;2023-10-19T00:28:23;98920.75;;;9.68;76.32
76285;BME280;71676;50.998;7.098;2023-10-19T00:30:52;98900.69;;;9.40;77.14
76285;BME280;71676;50.998;7.098;2023-10-19T00:33:19;98917.75;;;9.45;77.70
76285;BME280;71676;50.998;7.098;2023-10-19T00:35:47;98911.13;;;9.31;78.47
76285;BME280;71676;50.998;7.098;2023-10-19T00:38:16;98915.56;;;9.70;77.12
76285;BME280;71676;50.998;7.098;2023-10-19T00:41:05;98921.19;;;9.44;78.10
76285;BME280;71676;50.998;7.098;2023-10-19T00:43:39;98921.06;;;9.52;78.05
76285;BME280;71676;50.998;7.098;2023-10-19T00:46:09;98915.16;;;9.45;78.88
76285;BME280;71676;50.998;7.098;2023-10-19T00:48:44;98919.44;;;9.46;78.43
76285;BME280;71676;50.998;7.098;2023-10-19T00:51:12;98922.75;;;9.54;78.85
76285;BME280;71676;50.998;7.098;2023-10-19T00:53:53;98923.41;;;9.64;78.09
76285;BME280;71676;50.998;7.098;2023-10-19T00:56:21;98916.63;;;9.60;78.31
76285;BME280;71676;50.998;7.098;2023-10-19T00:58:50;98908.38;;;9.87;77.23
76285;BME280;71676;50.998;7.098;2023-10-19T01:01:27;98908.28;;;9.91;77.23
76285;BME280;71676;50.998;7.098;2023-10-19T01:03:54;98900.00;;;9.76;78.26
76285;BME280;71676;50.998;7.098;2023-10-19T01:06:23;98894.50;;;9.94;77.47
76285;BME280;71676;50.998;7.098;2023-10-19T01:08:50;98890.25;;;9.91;77.93
76285;BME280;71676;50.998;7.098;2023-10-19T01:11:20;98891.88;;;9.97;77.41
76285;BME280;71676;50.998;7.098;2023-10-19T01:13:47;98891.88;;;9.97;77.32
76285;BME280;71676;50.998;7.098;2023-10-19T01:16:17;98896.03;;;10.04;77.25
76285;BME280;71676;50.998;7.098;2023-10-19T01:18:48;98902.75;;;10.11;76.96
76285;BME280;71676;50.998;7.098;2023-10-19T01:21:20;98901.28;;;9.98;77.59
76285;BME280;71676;50.998;7.098;2023-10-19T01:23:48;98907.41;;;10.33;76.43
76285;BME280;71676;50.998;7.098;2023-10-19T01:26:14;98901.06;;;10.10;77.34
76285;BME280;71676;50.998;7.098;2023-10-19T01:28:47;98894.16;;;10.12;77.91
76285;BME280;71676;50.998;7.098;2023-10-19T01:31:18;98880.22;;;10.20;76.96
76285;BME280;71676;50.998;7.098;2023-10-19T01:33:56;98899.19;;;10.16;77.61
76285;BME280;71676;50.998;7.098;2023-10-19T01:36:25;98899.56;;;10.39;76.32
76285;BME280;71676;50.998;7.098;2023-10-19T01:38:52;98902.28;;;10.32;77.40
76285;BME280;71676;50.998;7.098;2023-10-19T01:41:21;98891.66;;;10.48;76.06
76285;BME280;71676;50.998;7.098;2023-10-19T01:43:49;98892.75;;;10.38;77.07
76285;BME280;71676;50.998;7.098;2023-10-19T01:46:19;98893.84;;;10.25;78.10
76285;BME280;71676;50.998;7.098;2023-10-19T01:48:50;98896.69;;;10.54;76.56
76285;BME280;71676;50.998;7.098;2023-10-19T01:51:20;98897.34;;;10.63;75.34
76285;BME280;71676;50.998;7.098;2023-10-19T01:53:46;98902.09;;;10.81;75.42
76285;BME280;71676;50.998;7.098;2023-10-19T01:56:15;98891.53;;;10.91;73.94
76285;BME280;71676;50.998;7.098;2023-10-19T01:58:43;98899.03;;;11.00;73.91
76285;BME280;71676;50.998;7.098;2023-10-19T02:01:12;98894.88;;;10.95;74.81
76285;BME280;71676;50.998;7.098;2023-10-19T02:03:45;98894.19;;;10.88;75.51
76285;BME280;71676;50.998;7.098;2023-10-19T02:06:13;98891.56;;;10.90;74.88
76285;BME280;71676;50.998;7.098;2023-10-19T02:08:45;98845.34;;;10.82;74.60
76285;BME280;71676;50.998;7.098;2023-10-19T02:11:14;98880.75;;;11.09;73.94
76285;BME280;71676;50.998;7.098;2023-10-19T02:13:44;98867.63;;;11.18;73.45
76285;BME280;71676;50.998;7.098;2023-10-19T02:16:13;98858.94;;;11.22;73.54
76285;BME280;71676;50.998;7.098;2023-10-19T02:18:41;98860.75;;;11.19;74.30
76285;BME280;71676;50.998;7.098;2023-10-19T02:21:08;98862.59;;;11.14;74.52
76285;BME280;71676;50.998;7.098;2023-10-19T02:23:37;98851.00;;;10.96;75.42
76285;BME280;71676;50.998;7.098;2023-10-19T02:26:04;98856.00;;;11.02;75.26
76285;BME280;71676;50.998;7.098;2023-10-19T02:28:31;98855.19;;;11.00;74.67
76285;BME280;71676;50.998;7.098;2023-10-19T02:31:02;98851.84;;;10.97;75.38
76285;BME280;71676;50.998;7.098;2023-10-19T02:33:40;98848.09;;;11.10;73.92
76285;BME280;71676;50.998;7.098;2023-10-19T02:36:07;98854.06;;;11.10;74.77
76285;BME280;71676;50.998;7.098;2023-10-19T02:38:41;98850.63;;;11.11;75.08
76285;BME280;71676;50.998;7.098;2023-10-19T02:41:10;98846.31;;;10.77;76.81
76285;BME280;71676;50.998;7.098;2023-10-19T02:43:37;98851.91;;;10.95;76.50
76285;BME280;71676;50.998;7.098;2023-10-19T02:46:05;98843.75;;;11.10;75.19
76285;BME280;71676;50.998;7.098;2023-10-19T02:48:32;98845.50;;;11.10;75.48
76285;BME280;71676;50.998;7.098;2023-10-19T02:50:59;98835.00;;;11.17;75.32
76285;BME280;71676;50.998;7.098;2023-10-19T02:53:32;98846.22;;;11.15;75.70
76285;BME280;71676;50.998;7.098;2023-10-19T02:55:59;98849.94;;;11.05;76.21
76285;BME280;71676;50.998;7.098;2023-10-19T02:58:35;98845.38;;;11.14;76.10
76285;BME280;71676;50.998;7.098;2023-10-19T03:01:03;98836.91;;;11.09;76.12
76285;BME280;71676;50.998;7.098;2023-10-19T03:03:37;98843.78;;;11.09;76.12
76285;BME280;71676;50.998;7.098;2023-10-19T03:06:04;98825.63;;;11.13;76.36
76285;BME280;71676;50.998;7.098;2023-10-19T03:08:31;98827.63;;;11.02;77.00
76285;BME280;71676;50.998;7.098;2023-10-19T03:10:58;98832.28;;;11.22;75.62
76285;BME280;71676;50.998;7.098;2023-10-19T03:13:29;98827.09;;;11.23;75.47
76285;BME280;71676;50.998;7.098;2023-10-19T03:15:57;98816.72;;;11.25;75.69
76285;BME280;71676;50.998;7.098;2023-10-19T03:18:23;98823.13;;;11.10;76.66
76285;BME280;71676;50.998;7.098;2023-10-19T03:20:51;98805.28;;;11.03;76.51
76285;BME280;71676;50.998;7.098;2023-10-19T03:23:16;98818.38;;;11.27;75.91
76285;BME280;71676;50.998;7.098;2023-10-19T03:25:43;98818.09;;;11.38;75.37
76285;BME280;71676;50.998;7.098;2023-10-19T03:28:22;98799.59;;;11.22;75.95
76285;BME280;71676;50.998;7.098;2023-10-19T03:30:51;98801.97;;;11.30;75.82
76285;BME280;71676;50.998;7.098;2023-10-19T03:33:17;98801.88;;;11.33;75.82
76285;BME280;71676;50.998;7.098;2023-10-19T03:35:45;98801.16;;;11.28;75.92
76285;BME280;71676;50.998;7.098;2023-10-19T03:38:12;98797.66;;;11.30;75.43
76285;BME280;71676;50.998;7.098;2023-10-19T03:40:42;98795.88;;;11.32;75.36
76285;BME280;71676;50.998;7.098;2023-10-19T03:43:12;98793.91;;;11.40;75.19
76285;BME280;71676;50.998;7.098;2023-10-19T03:45:44;98786.03;;;11.46;74.88
76285;BME280;71676;50.998;7.098;2023-10-19T03:48:18;98778.00;;;11.57;74.48
76285;BME280;71676;50.998;7.098;2023-10-19T03:50:51;98779.53;;;11.64;74.09
76285;BME280;71676;50.998;7.098;2023-10-19T03:53:19;98783.91;;;11.62;74.54
76285;BME280;71676;50.998;7.098;2023-10-19T03:55:46;98759.22;;;11.52;74.67
76285;BME280;71676;50.998;7.098;2023-10-19T03:58:15;98780.63;;;11.55;74.57
76285;BME280;71676;50.998;7.098;2023-10-19T04:00:42;98776.47;;;11.51;74.56
76285;BME280;71676;50.998;7.098;2023-10-19T04:03:10;98782.53;;;11.49;74.74
76285;BME280;71676;50.998;7.098;2023-10-19T04:05:37;98785.28;;;11.43;75.59
76285;BME280;71676;50.998;7.098;2023-10-19T04:08:07;98788.94;;;11.34;76.12
76285;BME280;71676;50.998;7.098;2023-10-19T04:10:40;98788.81;;;11.39;75.47
76285;BME280;71676;50.998;7.098;2023-10-19T04:13:11;98783.59;;;11.40;75.92
76285;BME280;71676;50.998;7.098;2023-10-19T04:15:38;98774.00;;;11.45;75.18
76285;BME280;71676;50.998;7.098;2023-10-19T04:18:06;98772.00;;;11.56;74.88
76285;BME280;71676;50.998;7.098;2023-10-19T04:20:35;98775.28;;;11.61;74.33
76285;BME280;71676;50.998;7.098;2023-10-19T04:23:09;98742.69;;;11.59;74.09
76285;BME280;71676;50.998;7.098;2023-10-19T04:25:39;98757.94;;;11.66;73.92
76285;BME280;71676;50.998;7.098;2023-10-19T04:28:06;98764.63;;;11.73;73.81
76285;BME280;71676;50.998;7.098;2023-10-19T04:30:33;98731.59;;;11.55;74.04
76285;BME280;71676;50.998;7.098;2023-10-19T04:33:02;98761.47;;;11.64;74.12
76285;BME280;71676;50.998;7.098;2023-10-19T04:35:34;98762.19;;;11.67;73.82
76285;BME280;71676;50.998;7.098;2023-10-19T04:38:01;98749.72;;;11.54;74.22
76285;BME280;71676;50.998;7.098;2023-10-19T04:40:29;98765.16;;;11.55;74.91
76285;BME280;71676;50.998;7.098;2023-10-19T04:42:55;98769.31;;;11.61;74.45
76285;BME280;71676;50.998;7.098;2023-10-19T04:45:22;98761.44;;;11.65;74.25
76285;BME280;71676;50.998;7.098;2023-10-19T04:47:50;98757.03;;;11.67;74.07
76285;BME280;71676;50.998;7.098;2023-10-19T04:50:17;98755.97;;;11.74;74.24
76285;BME280;71676;50.998;7.098;2023-10-19T04:52:44;98752.34;;;11.81;73.48
76285;BME280;71676;50.998;7.098;2023-10-19T04:55:11;98747.19;;;11.81;73.56
76285;BME280;71676;50.998;7.098;2023-10-19T04:57:39;98759.38;;;11.76;74.58
76285;BME280;71676;50.998;7.098;2023-10-19T05:00:06;98755.97;;;11.74;73.86
76285;BME280;71676;50.998;7.098;2023-10-19T05:02:38;98761.06;;;11.77;74.18
76285;BME280;71676;50.998;7.098;2023-10-19T05:05:05;98757.91;;;11.68;74.61
76285;BME280;71676;50.998;7.098;2023-10-19T05:07:32;98761.19;;;11.73;74.78
76285;BME280;71676;50.998;7.098;2023-10-19T05:09:59;98763.72;;;11.74;74.74
76285;BME280;71676;50.998;7.098;2023-10-19T05:12:27;98756.06;;;11.71;74.98
76285;BME280;71676;50.998;7.098;2023-10-19T05:14:55;98761.56;;;11.59;75.41
76285;BME280;71676;50.998;7.098;2023-10-19T05:17:22;98770.84;;;11.66;75.20
76285;BME280;71676;50.998;7.098;2023-10-19T05:19:48;98761.44;;;11.65;75.31
76285;BME280;71676;50.998;7.098;2023-10-19T05:22:16;98767.16;;;11.75;75.01
76285;BME280;71676;50.998;7.098;2023-10-19T05:24:43;98753.34;;;11.76;74.87
76285;BME280;71676;50.998;7.098;2023-10-19T05:27:09;98757.41;;;11.84;74.56
76285;BME280;71676;50.998;7.098;2023-10-19T05:29:36;98751.19;;;11.90;74.32
76285;BME280;71676;50.998;7.098;2023-10-19T05:32:06;98755.63;;;11.86;74.60
76285;BME280;71676;50.998;7.098;2023-10-19T05:34:34;98751.47;;;11.81;74.98
76285;BME280;71676;50.998;7.098;2023-10-19T05:37:01;98746.81;;;11.64;75.32
76285;BME280;71676;50.998;7.098;2023-10-19T05:39:30;98741.88;;;11.57;75.75
76285;BME280;71676;50.998;7.098;2023-10-19T05:41:59;98751.19;;;11.62;75.37
76285;BME280;71676;50.998;7.098;2023-10-19T05:44:25;98746.72;;;11.67;75.68
76285;BME280;71676;50.998;7.098;2023-10-19T05:46:52;98752.97;;;11.60;75.44
76285;BME280;71676;50.998;7.098;2023-10-19T05:49:21;98743.34;;;11.65;75.27
76285;BME280;71676;50.998;7.098;2023-10-19T05:51:49;98748.25;;;11.74;75.40
76285;BME280;71676;50.998;7.098;2023-10-19T05:54:16;98749.47;;;11.61;75.77
76285;BME280;71676;50.998;7.098;2023-10-19T05:56:43;98752.91;;;11.62;76.04
76285;BME280;71676;50.998;7.098;2023-10-19T05:59:11;98739.38;;;11.54;76.32
76285;BME280;71676;50.998;7.098;2023-10-19T06:01:38;98711.72;;;11.28;76.15
76285;BME280;71676;50.998;7.098;2023-10-19T06:04:06;98761.16;;;11.74;75.67
76285;BME280;71676;50.998;7.098;2023-10-19T06:06:34;98760.97;;;11.80;75.62
76285;BME280;71676;50.998;7.098;2023-10-19T06:09:01;98762.63;;;11.83;75.13
76285;BME280;71676;50.998;7.098;2023-10-19T06:11:29;98765.25;;;11.81;75.57
76285;BME280;71676;50.998;7.098;2023-10-19T06:13:58;98778.84;;;11.88;75.21
76285;BME280;71676;50.998;7.098;2023-10-19T06:16:25;98758.22;;;11.85;75.09
76285;BME280;71676;50.998;7.098;2023-10-19T06:18:53;98778.31;;;12.04;74.63
76285;BME280;71676;50.998;7.098;2023-10-19T06:21:20;98777.53;;;12.02;75.10
76285;BME280;71676;50.998;7.098;2023-10-19T06:23:48;98779.03;;;12.10;74.48
76285;BME280;71676;50.998;7.098;2023-10-19T06:26:15;98778.94;;;12.13;74.29
76285;BME280;71676;50.998;7.098;2023-10-19T06:28:42;98786.56;;;12.16;74.39
76285;BME280;71676;50.998;7.098;2023-10-19T06:31:08;98791.53;;;12.23;74.01
76285;BME280;71676;50.998;7.098;2023-10-19T06:33:35;98789.56;;;12.31;73.76
76285;BME280;71676;50.998;7.098;2023-10-19T06:36:07;98788.84;;;12.26;74.08
76285;BME280;71676;50.998;7.098;2023-10-19T06:38:34;98789.66;;;12.28;74.20
76285;BME280;71676;50.998;7.098;2023-10-19T06:41:09;98785.97;;;12.35;73.91
76285;BME280;71676;50.998;7.098;2023-10-19T06:43:36;98786.88;;;12.34;73.75
76285;BME280;71676;50.998;7.098;2023-10-19T06:46:03;98786.56;;;12.43;73.43
76285;BME280;71676;50.998;7.098;2023-10-19T06:48:30;98787.59;;;12.39;73.94
76285;BME280;71676;50.998;7.098;2023-10-19T06:50:56;98788.31;;;12.43;73.51
76285;BME280;71676;50.998;7.098;2023-10-19T06:53:23;98791.59;;;12.48;73.72
76285;BME280;71676;50.998;7.098;2023-10-19T06:55:50;98780.56;;;12.43;73.39
76285;BME280;71676;50.998;7.098;2023-10-19T06:58:18;98800.16;;;12.50;73.97
76285;BME280;71676;50.998;7.098;2023-10-19T07:00:45;98794.06;;;12.51;73.97
76285;BME280;71676;50.998;7.098;2023-10-19T07:03:21;98790.06;;;12.42;74.13
76285;BME280;71676;50.998;7.098;2023-10-19T07:05:48;98793.88;;;12.31;74.21
76285;BME280;71676;50.998;7.098;2023-10-19T07:08:15;98794.72;;;12.31;75.11
76285;BME280;71676;50.998;7.098;2023-10-19T07:10:44;98794.72;;;12.31;75.01
76285;BME280;71676;50.998;7.098;2023-10-19T07:13:11;98799.75;;;12.36;74.96
76285;BME280;71676;50.998;7.098;2023-10-19T07:15:40;98797.78;;;12.44;74.55
76285;BME280;71676;50.998;7.098;2023-10-19T07:18:07;98801.84;;;12.51;74.39
76285;BME280;71676;50.998;7.098;2023-10-19T07:20:34;98804.19;;;12.60;74.17
76285;BME280;71676;50.998;7.098;2023-10-19T07:23:03;98807.41;;;12.66;73.86
76285;BME280;71676;50.998;7.098;2023-10-19T07:25:35;98808.91;;;12.73;73.69
76285;BME280;71676;50.998;7.098;2023-10-19T07:28:08;98815.94;;;12.68;74.35
76285;BME280;71676;50.998;7.098;2023-10-19T07:30:35;98813.50;;;12.64;73.97
76285;BME280;71676;50.998;7.098;2023-10-19T07:33:03;98810.09;;;12.63;74.38
76285;BME280;71676;50.998;7.098;2023-10-19T07:35:34;98805.81;;;12.62;74.30
76285;BME280;71676;50.998;7.098;2023-10-19T07:38:03;98802.31;;;12.65;74.28
76285;BME280;71676;50.998;7.098;2023-10-19T07:40:32;98796.59;;;12.54;74.38
76285;BME280;71676;50.998;7.098;2023-10-19T07:42:59;98810.34;;;12.54;74.90
76285;BME280;71676;50.998;7.098;2023-10-19T07:45:25;98817.72;;;12.68;74.22
76285;BME280;71676;50.998;7.098;2023-10-19T07:47:52;98818.31;;;12.76;74.20
76285;BME280;71676;50.998;7.098;2023-10-19T07:50:20;98827.59;;;12.81;73.87
76285;BME280;71676;50.998;7.098;2023-10-19T07:52:51;98822.09;;;12.92;73.85
76285;BME280;71676;50.998;7.098;2023-10-19T07:55:21;98821.19;;;12.93;73.71
76285;BME280;71676;50.998;7.098;2023-10-19T07:57:49;98818.50;;;12.96;73.34
76285;BME280;71676;50.998;7.098;2023-10-19T08:00:17;98813.91;;;13.04;73.13
76285;BME280;71676;50.998;7.098;2023-10-19T08:02:44;98811.16;;;13.08;73.18
76285;BME280;71676;50.998;7.098;2023-10-19T08:05:11;98811.16;;;13.08;73.17
76285;BME280;71676;50.998;7.098;2023-10-19T08:07:40;98809.59;;;13.04;73.63
76285;BME280;71676;50.998;7.098;2023-10-19T08:10:09;98807.69;;;13.09;73.29
76285;BME280;71676;50.998;7.098;2023-10-19T08:12:37;98810.34;;;13.08;73.76
76285;BME280;71676;50.998;7.098;2023-10-19T08:15:04;98803.31;;;13.11;73.74
76285;BME280;71676;50.998;7.098;2023-10-19T08:17:32;98800.16;;;13.02;73.82
76285;BME280;71676;50.998;7.098;2023-10-19T08:19:59;98793.41;;;12.98;73.86
76285;BME280;71676;50.998;7.098;2023-10-19T08:22:28;98790.09;;;12.94;74.25
76285;BME280;71676;50.998;7.098;2023-10-19T08:24:57;98783.19;;;12.95;74.25
76285;BME280;71676;50.998;7.098;2023-10-19T08:27:24;98787.81;;;13.10;74.28
76285;BME280;71676;50.998;7.098;2023-10-19T08:29:51;98789.94;;;13.23;73.78
76285;BME280;71676;50.998;7.098;2023-10-19T08:32:17;98789.41;;;13.38;73.48
76285;BME280;71676;50.998;7.098;2023-10-19T08:34:44;98797.69;;;13.48;73.11
76285;BME280;71676;50.998;7.098;2023-10-19T08:37:10;98797.44;;;13.56;73.36
76285;BME280;71676;50.998;7.098;2023-10-19T08:39:38;98784.53;;;13.54;72.76
76285;BME280;71676;50.998;7.098;2023-10-19T08:42:07;98776.88;;;13.51;72.34
76285;BME280;71676;50.998;7.098;2023-10-19T08:44:35;98781.81;;;13.59;72.35
76285;BME280;71676;50.998;7.098;2023-10-19T08:47:02;98785.31;;;13.58;72.18
76285;BME280;71676;50.998;7.098;2023-10-19T08:49:30;98798.59;;;13.72;72.54
76285;BME280;71676;50.998;7.098;2023-10-19T08:51:58;98792.44;;;13.97;71.88
76285;BME280;71676;50.998;7.098;2023-10-19T08:54:26;98787.00;;;14.26;71.65
76285;BME280;71676;50.998;7.098;2023-10-19T08:56:53;98783.09;;;14.59;71.60
76285;BME280;71676;50.998;7.098;2023-10-19T08:59:22;98778.06;;;15.17;69.60
76285;BME280;71676;50.998;7.098;2023-10-19T09:01:48;98775.03;;;15.47;66.16
76285;BME280;71676;50.998;7.098;2023-10-19T09:04:15;98772.47;;;15.84;65.13
76285;BME280;71676;50.998;7.098;2023-10-19T09:06:42;98759.88;;;16.31;62.94
76285;BME280;71676;50.998;7.098;2023-10-19T09:09:10;98760.00;;;16.64;61.55
76285;BME280;71676;50.998;7.098;2023-10-19T09:11:42;98753.06;;;17.15;62.66
76285;BME280;71676;50.998;7.098;2023-10-19T09:14:09;98757.38;;;17.49;59.07
76285;BME280;71676;50.998;7.098;2023-10-19T09:16:53;98753.03;;;17.98;59.83
76285;BME280;71676;50.998;7.098;2023-10-19T09:19:21;98741.31;;;18.36;58.17
76285;BME280;71676;50.998;7.098;2023-10-19T09:21:47;98745.31;;;18.57;53.59
76285;BME280;71676;50.998;7.098;2023-10-19T09:24:15;98747.47;;;18.80;54.56
76285;BME280;71676;50.998;7.098;2023-10-19T09:26:41;98744.16;;;19.06;55.27
76285;BME280;71676;50.998;7.098;2023-10-19T09:29:12;98739.41;;;19.13;53.59
76285;BME280;71676;50.998;7.098;2023-10-19T09:31:46;98738.94;;;19.06;54.48
76285;BME280;71676;50.998;7.098;2023-10-19T09:34:13;98741.28;;;19.25;55.84
76285;BME280;71676;50.998;7.098;2023-10-19T09:36:42;98729.94;;;19.54;55.76
76285;BME280;71676;50.998;7.098;2023-10-19T09:39:09;98730.69;;;19.56;53.33
76285;BME280;71676;50.998;7.098;2023-10-19T09:41:38;98724.94;;;20.05;54.71
76285;BME280;71676;50.998;7.098;2023-10-19T09:44:06;98722.31;;;20.05;50.11
76285;BME280;71676;50.998;7.098;2023-10-19T09:46:39;98720.81;;;20.42;50.54
76285;BME280;71676;50.998;7.098;2023-10-19T09:49:09;98712.59;;;20.21;50.31
76285;BME280;71676;50.998;7.098;2023-10-19T09:51:39;98696.47;;;20.27;50.66
76285;BME280;71676;50.998;7.098;2023-10-19T09:54:14;98707.56;;;20.58;48.50
76285;BME280;71676;50.998;7.098;2023-10-19T09:56:47;98711.09;;;20.83;49.11
76285;BME280;71676;50.998;7.098;2023-10-19T09:59:23;98713.53;;;21.36;47.31
76285;BME280;71676;50.998;7.098;2023-10-19T10:02:07;98703.16;;;21.47;46.88
76285;BME280;71676;50.998;7.098;2023-10-19T10:04:37;98703.56;;;21.66;46.52
76285;BME280;71676;50.998;7.098;2023-10-19T10:07:06;98702.16;;;21.86;47.63
76285;BME280;71676;50.998;7.098;2023-10-19T10:09:34;98694.94;;;22.13;46.25
76285;BME280;71676;50.998;7.098;2023-10-19T10:12:21;98696.63;;;22.38;47.16
76285;BME280;71676;50.998;7.098;2023-10-19T10:14:56;98691.31;;;22.50;43.59
76285;BME280;71676;50.998;7.098;2023-10-19T10:17:24;98703.41;;;21.93;45.87
76285;BME280;71676;50.998;7.098;2023-10-19T10:19:55;98701.50;;;21.34;44.29
76285;BME280;71676;50.998;7.098;2023-10-19T10:22:25;98716.06;;;21.25;47.86
76285;BME280;71676;50.998;7.098;2023-10-19T10:24:55;98714.06;;;21.41;48.28
76285;BME280;71676;50.998;7.098;2023-10-19T10:27:22;98716.50;;;21.19;47.78
76285;BME280;71676;50.998;7.098;2023-10-19T10:29:56;98709.88;;;21.39;46.57
76285;BME280;71676;50.998;7.098;2023-10-19T10:32:42;98715.41;;;21.34;47.46
76285;BME280;71676;50.998;7.098;2023-10-19T10:38:15;98710.94;;;21.49;48.13
76285;BME280;71676;50.998;7.098;2023-10-19T10:40:42;98709.31;;;20.84;46.66
76285;BME280;71676;50.998;7.098;2023-10-19T10:43:09;98717.66;;;20.64;46.91
76285;BME280;71676;50.998;7.098;2023-10-19T10:45:37;98711.66;;;20.35;47.92
76285;BME280;71676;50.998;7.098;2023-10-19T10:48:04;98704.94;;;20.58;48.98
76285;BME280;71676;50.998;7.098;2023-10-19T10:50:32;98695.75;;;20.65;49.54
76285;BME280;71676;50.998;7.098;2023-10-19T10:53:00;98699.50;;;20.21;48.48
76285;BME280;71676;50.998;7.098;2023-10-19T10:55:26;98698.00;;;20.17;49.55
76285;BME280;71676;50.998;7.098;2023-10-19T10:57:54;98699.88;;;20.42;50.04
76285;BME280;71676;50.998;7.098;2023-10-19T11:00:21;98691.59;;;20.48;48.83
76285;BME280;71676;50.998;7.098;2023-10-19T11:02:59;98648.63;;;20.25;49.71
76285;BME280;71676;50.998;7.098;2023-10-19T11:05:26;98683.16;;;19.77;49.65
76285;BME280;71676;50.998;7.098;2023-10-19T11:08:05;98681.84;;;19.70;50.54
76285;BME280;71676;50.998;7.098;2023-10-19T11:10:33;98672.28;;;19.83;50.84
76285;BME280;71676;50.998;7.098;2023-10-19T11:13:01;98671.53;;;19.81;50.68
76285;BME280;71676;50.998;7.098;2023-10-19T11:15:27;98671.84;;;19.35;51.24
76285;BME280;71676;50.998;7.098;2023-10-19T11:17:54;98672.44;;;19.26;50.60
76285;BME280;71676;50.998;7.098;2023-10-19T11:20:21;98672.53;;;19.52;51.56
76285;BME280;71676;50.998;7.098;2023-10-19T11:22:49;98666.28;;;19.55;51.21
76285;BME280;71676;50.998;7.098;2023-10-19T11:25:21;98667.75;;;19.59;51.58
76285;BME280;71676;50.998;7.098;2023-10-19T11:27:48;98664.50;;;19.55;51.61
76285;BME280;71676;50.998;7.098;2023-10-19T11:30:22;98654.13;;;19.54;50.98
76285;BME280;71676;50.998;7.098;2023-10-19T11:32:50;98651.31;;;19.57;51.76
76285;BME280;71676;50.998;7.098;2023-10-19T11:35:18;98659.25;;;19.55;51.55
76285;BME280;71676;50.998;7.098;2023-10-19T11:37:46;98652.91;;;19.59;52.03
76285;BME280;71676;50.998;7.098;2023-10-19T11:40:13;98640.97;;;18.85;51.90
76285;BME280;71676;50.998;7.098;2023-10-19T11:42:41;98645.00;;;19.05;52.22
76285;BME280;71676;50.998;7.098;2023-10-19T11:45:08;98638.06;;;18.89;52.27
76285;BME280;71676;50.998;7.098;2023-10-19T11:47:36;98642.50;;;18.30;52.86
76285;BME280;71676;50.998;7.098;2023-10-19T11:50:04;98635.34;;;18.63;53.14
76285;BME280;71676;50.998;7.098;2023-10-19T11:52:31;98629.47;;;18.73;53.45
76285;BME280;71676;50.998;7.098;2023-10-19T11:54:58;98622.34;;;18.61;53.33
76285;BME280;71676;50.998;7.098;2023-10-19T11:57:25;98617.22;;;18.60;53.24
76285;BME280;71676;50.998;7.098;2023-10-19T11:59:53;98622.53;;;18.58;53.39
76285;BME280;71676;50.998;7.098;2023-10-19T12:02:19;98625.50;;;18.52;53.26
76285;BME280;71676;50.998;7.098;2023-10-19T12:04:46;98635.66;;;18.43;53.47
76285;BME280;71676;50.998;7.098;2023-10-19T12:07:13;98635.19;;;18.50;54.17
76285;BME280;71676;50.998;7.098;2023-10-19T12:09:39;98645.72;;;18.19;54.45
76285;BME280;71676;50.998;7.098;2023-10-19T12:12:07;98644.63;;;18.08;54.90
76285;BME280;71676;50.998;7.098;2023-10-19T12:14:34;98646.25;;;18.10;54.65
76285;BME280;71676;50.998;7.098;2023-10-19T12:17:02;98635.72;;;18.12;55.09
76285;BME280;71676;50.998;7.098;2023-10-19T12:19:31;98626.06;;;17.83;55.65
76285;BME280;71676;50.998;7.098;2023-10-19T12:21:59;98622.84;;;17.78;55.70
76285;BME280;71676;50.998;7.098;2023-10-19T12:24:26;98627.00;;;17.82;56.09
76285;BME280;71676;50.998;7.098;2023-10-19T12:26:54;98623.56;;;17.66;56.62
76285;BME280;71676;50.998;7.098;2023-10-19T12:29:21;98635.22;;;17.58;56.90
76285;BME280;71676;50.998;7.098;2023-10-19T12:31:48;98641.16;;;17.29;58.10
76285;BME280;71676;50.998;7.098;2023-10-19T12:34:16;98643.34;;;17.21;58.28
76285;BME280;71676;50.998;7.098;2023-10-19T12:36:42;98640.31;;;16.96;59.26
76285;BME280;71676;50.998;7.098;2023-10-19T12:39:11;98645.56;;;17.29;58.53
76285;BME280;71676;50.998;7.098;2023-10-19T12:41:59;98649.06;;;17.12;58.46
76285;BME280;71676;50.998;7.098;2023-10-19T12:44:26;98650.59;;;17.32;58.78
76285;BME280;71676;50.998;7.098;2023-10-19T12:46:55;98652.44;;;17.30;59.04
76285;BME280;71676;50.998;7.098;2023-10-19T12:49:23;98658.50;;;16.81;60.81
76285;BME280;71676;50.998;7.098;2023-10-19T12:51:52;98646.38;;;16.97;60.30
76285;BME280;71676;50.998;7.098;2023-10-19T12:54:19;98638.00;;;16.58;61.74
76285;BME280;71676;50.998;7.098;2023-10-19T12:56:47;98639.84;;;16.73;61.34
76285;BME280;71676;50.998;7.098;2023-10-19T12:59:15;98640.53;;;16.42;62.14
76285;BME280;71676;50.998;7.098;2023-10-19T13:01:43;98644.41;;;16.16;63.28
76285;BME280;71676;50.998;7.098;2023-10-19T13:04:13;98644.72;;;16.10;64.01
76285;BME280;71676;50.998;7.098;2023-10-19T13:06:43;98647.41;;;16.43;62.56
76285;BME280;71676;50.998;7.098;2023-10-19T13:09:12;98651.41;;;16.50;62.47
76285;BME280;71676;50.998;7.098;2023-10-19T13:11:41;98628.38;;;16.60;61.67
76285;BME280;71676;50.998;7.098;2023-10-19T13:14:09;98652.31;;;16.66;62.45